createdAt,value
2023-05-16T00:02:49.095Z,11.10
2023-05-16T00:06:10.746Z,11.00
2023-05-16T00:09:32.315Z,10.90
2023-05-16T00:12:53.926Z,10.90
2023-05-16T00:16:16.893Z,10.80
2023-05-16T00:19:38.509Z,10.90
2023-05-16T00:23:00.114Z,10.90
2023-05-16T00:26:21.959Z,10.90
2023-05-16T00:29:43.636Z,10.90
2023-05-16T00:33:06.600Z,10.90
2023-05-16T00:36:28.202Z,10.90
2023-05-16T00:39:49.789Z,10.80
2023-05-16T00:43:11.389Z,10.70
2023-05-16T00:46:33.052Z,10.70
2023-05-16T00:49:56.042Z,10.70
2023-05-16T00:53:17.628Z,10.70
2023-05-16T00:56:39.253Z,10.80
2023-05-16T01:00:00.858Z,10.80
2023-05-16T01:03:22.723Z,10.80
2023-05-16T01:06:45.781Z,10.90
2023-05-16T01:10:08.009Z,10.90
2023-05-16T01:13:33.594Z,10.90
2023-05-16T01:16:59.782Z,10.90
2023-05-16T01:20:28.823Z,10.90
2023-05-16T01:24:00.718Z,10.90
2023-05-16T01:27:24.584Z,10.90
2023-05-16T01:30:46.210Z,10.90
2023-05-16T01:34:07.810Z,10.80
2023-05-16T01:37:33.147Z,10.80
2023-05-16T01:40:58.942Z,10.80
2023-05-16T01:44:24.169Z,10.70
2023-05-16T01:47:47.537Z,10.70
2023-05-16T01:51:09.940Z,10.70
2023-05-16T01:54:32.253Z,10.70
2023-05-16T01:57:54.068Z,10.70
2023-05-16T02:01:17.164Z,10.70
2023-05-16T02:04:38.782Z,10.80
2023-05-16T02:08:00.526Z,10.80
2023-05-16T02:11:22.121Z,10.90
2023-05-16T02:14:43.703Z,11.00
2023-05-16T02:18:06.710Z,11.10
2023-05-16T02:21:28.319Z,11.20
2023-05-16T02:24:49.921Z,11.20
2023-05-16T02:28:11.501Z,11.30
2023-05-16T02:31:33.769Z,11.30
2023-05-16T02:34:56.799Z,11.40
2023-05-16T02:38:18.380Z,11.50
2023-05-16T02:41:39.970Z,11.50
2023-05-16T02:45:01.546Z,11.50
2023-05-16T02:48:23.123Z,11.50
2023-05-16T02:51:46.160Z,11.50
2023-05-16T02:58:32.815Z,11.50
2023-05-16T03:01:54.465Z,11.40
2023-05-16T03:05:16.228Z,11.40
2023-05-16T03:08:39.183Z,11.40
2023-05-16T03:12:00.784Z,11.40
2023-05-16T03:15:22.371Z,11.40
2023-05-16T03:18:44.009Z,11.40
2023-05-16T03:22:05.606Z,11.40
2023-05-16T03:25:28.817Z,11.30
2023-05-16T03:28:50.571Z,11.30
2023-05-16T03:32:12.230Z,11.30
2023-05-16T03:35:34.589Z,11.30
2023-05-16T03:38:56.207Z,11.30
2023-05-16T03:42:19.134Z,11.30
2023-05-16T03:45:40.833Z,11.20
2023-05-16T03:49:02.603Z,11.20
2023-05-16T03:52:24.221Z,11.20
2023-05-16T03:55:48.047Z,11.10
2023-05-16T03:59:11.616Z,11.10
2023-05-16T04:02:33.255Z,11.10
2023-05-16T04:05:54.997Z,11.00
2023-05-16T04:09:16.565Z,11.00
2023-05-16T04:12:38.150Z,11.00
2023-05-16T04:16:01.070Z,11.00
2023-05-16T04:19:22.681Z,11.10
2023-05-16T04:22:44.242Z,11.10
2023-05-16T04:26:05.798Z,11.20
2023-05-16T04:29:27.356Z,11.30
2023-05-16T04:32:50.281Z,11.40
2023-05-16T04:36:11.892Z,11.50
2023-05-16T04:39:33.546Z,11.50
2023-05-16T04:42:55.117Z,11.50
2023-05-16T04:46:16.747Z,11.60
2023-05-16T04:49:39.722Z,11.70
2023-05-16T04:53:01.336Z,11.70
2023-05-16T04:56:22.882Z,11.70
2023-05-16T04:59:44.496Z,11.70
2023-05-16T05:03:06.264Z,11.70
2023-05-16T05:06:29.219Z,11.70
2023-05-16T05:09:50.778Z,11.80
2023-05-16T05:13:12.357Z,11.80
2023-05-16T05:16:33.914Z,11.90
2023-05-16T05:19:55.490Z,12.00
2023-05-16T05:23:18.389Z,12.00
2023-05-16T05:26:40.005Z,12.00
2023-05-16T05:30:01.879Z,12.10
2023-05-16T05:33:26.486Z,12.10
2023-05-16T05:36:48.142Z,12.10
2023-05-16T05:40:11.530Z,12.10
2023-05-16T05:43:33.121Z,12.10
2023-05-16T05:46:54.724Z,12.00
2023-05-16T05:50:16.369Z,11.90
2023-05-16T05:53:38.043Z,11.90
2023-05-16T05:57:00.972Z,11.90
2023-05-16T06:00:22.680Z,11.90
2023-05-16T06:03:44.267Z,11.90
2023-05-16T06:07:05.858Z,12.00
2023-05-16T06:10:27.461Z,12.00
2023-05-16T06:13:50.380Z,12.10
2023-05-16T06:17:11.990Z,12.10
2023-05-16T06:20:33.638Z,12.10
2023-05-16T06:23:55.224Z,12.20
2023-05-16T06:27:16.836Z,12.20
2023-05-16T06:30:39.925Z,12.30
2023-05-16T06:34:01.491Z,12.30
2023-05-16T06:37:23.090Z,12.30
2023-05-16T06:40:44.680Z,12.30
2023-05-16T06:44:06.283Z,12.30
2023-05-16T06:47:29.251Z,12.20
2023-05-16T06:50:50.931Z,12.20
2023-05-16T06:54:12.565Z,12.10
2023-05-16T06:57:34.168Z,12.20
2023-05-16T07:00:55.860Z,12.20
2023-05-16T07:04:18.864Z,12.20
2023-05-16T07:07:40.481Z,12.20
2023-05-16T07:11:02.169Z,12.20
2023-05-16T07:14:23.790Z,12.20
2023-05-16T07:17:45.449Z,12.20
2023-05-16T07:21:08.465Z,12.20
2023-05-16T07:24:30.090Z,12.30
2023-05-16T07:27:51.715Z,12.40
2023-05-16T07:31:13.386Z,12.40
2023-05-16T07:34:35.018Z,12.40
2023-05-16T07:37:57.971Z,12.30
2023-05-16T07:41:19.592Z,12.40
2023-05-16T07:44:41.216Z,12.40
2023-05-16T07:48:02.932Z,12.40
2023-05-16T07:51:24.607Z,12.40
2023-05-16T07:54:47.783Z,12.40
2023-05-16T07:58:09.458Z,12.40
2023-05-16T08:01:31.192Z,12.40
2023-05-16T08:04:52.823Z,12.40
2023-05-16T08:08:14.812Z,12.30
2023-05-16T08:11:37.800Z,12.30
2023-05-16T08:14:59.440Z,12.30
2023-05-16T08:18:22.487Z,12.30
2023-05-16T08:21:44.527Z,12.30
2023-05-16T08:25:06.719Z,12.40
2023-05-16T08:28:29.920Z,12.50
2023-05-16T08:31:51.621Z,12.40
2023-05-16T08:35:13.355Z,12.40
2023-05-16T08:38:34.980Z,12.40
2023-05-16T08:41:56.715Z,12.40
2023-05-16T08:45:19.795Z,12.40
2023-05-16T08:48:43.181Z,12.30
2023-05-16T08:52:07.910Z,12.20
2023-05-16T08:55:29.829Z,12.30
2023-05-16T08:58:51.948Z,12.30
2023-05-16T09:02:15.209Z,12.40
2023-05-16T09:05:37.112Z,12.40
2023-05-16T09:08:58.900Z,12.30
2023-05-16T09:12:20.569Z,12.20
2023-05-16T09:15:42.192Z,12.20
2023-05-16T09:19:05.264Z,12.30
2023-05-16T09:22:28.994Z,12.30
2023-05-16T09:25:52.652Z,12.30
2023-05-16T09:29:14.290Z,12.20
2023-05-16T09:32:36.004Z,12.20
2023-05-16T09:35:59.646Z,12.10
2023-05-16T09:39:21.278Z,12.10
2023-05-16T09:42:43.047Z,12.10
2023-05-16T09:46:04.825Z,12.00
2023-05-16T09:49:26.518Z,12.00
2023-05-16T09:52:50.772Z,12.10
2023-05-16T09:56:13.455Z,12.10
2023-05-16T09:59:38.580Z,12.00
2023-05-16T10:03:04.025Z,12.00
2023-05-16T10:06:26.801Z,12.00
2023-05-16T10:09:50.534Z,12.00
2023-05-16T10:13:12.569Z,12.10
2023-05-16T10:16:34.992Z,12.30
2023-05-16T10:19:56.682Z,12.40
2023-05-16T10:23:20.417Z,12.50
2023-05-16T10:26:43.442Z,12.50
2023-05-16T10:30:05.713Z,12.50
2023-05-16T10:33:29.421Z,12.50
2023-05-16T10:36:51.296Z,12.40
2023-05-16T10:40:13.138Z,12.30
2023-05-16T10:43:36.127Z,12.30
2023-05-16T10:46:58.355Z,12.20
2023-05-16T10:50:32.946Z,12.20
2023-05-16T10:53:54.973Z,12.40
2023-05-16T10:57:17.223Z,12.50
2023-05-16T11:00:40.724Z,12.60
2023-05-16T11:04:06.587Z,12.70
2023-05-16T11:07:31.367Z,12.80
2023-05-16T11:11:16.791Z,12.90
2023-05-16T11:14:38.898Z,12.80
2023-05-16T11:18:05.359Z,12.80
2023-05-16T11:22:01.700Z,12.80
2023-05-16T11:25:35.320Z,12.70
2023-05-16T11:28:57.339Z,12.70
2023-05-16T11:32:20.040Z,12.70
2023-05-16T11:35:43.101Z,12.70
2023-05-16T11:39:07.894Z,12.70
2023-05-16T11:42:30.227Z,12.60
2023-05-16T11:45:54.252Z,12.50
2023-05-16T11:49:15.881Z,12.40
2023-05-16T11:52:39.033Z,12.30
2023-05-16T11:56:00.674Z,12.30
2023-05-16T11:59:22.468Z,12.20
2023-05-16T12:02:44.304Z,12.20
2023-05-16T12:06:06.168Z,12.10
2023-05-16T12:09:29.115Z,12.00
2023-05-16T12:12:51.498Z,11.80
2023-05-16T12:16:13.213Z,11.90
2023-05-16T12:19:34.850Z,11.90
2023-05-16T12:22:57.623Z,11.70
2023-05-16T12:26:24.754Z,11.70
2023-05-16T12:29:47.157Z,11.80
2023-05-16T12:33:10.162Z,11.80
2023-05-16T12:36:32.284Z,11.90
2023-05-16T12:39:59.455Z,11.90
2023-05-16T12:43:23.091Z,12.00
2023-05-16T12:46:45.759Z,12.00
2023-05-16T12:50:09.477Z,12.00
2023-05-16T12:53:40.830Z,12.00
2023-05-16T12:57:02.518Z,12.00
2023-05-16T13:00:25.631Z,12.00
2023-05-16T13:03:47.453Z,12.10
2023-05-16T13:07:09.145Z,12.20
2023-05-16T13:10:30.972Z,12.40
2023-05-16T13:13:53.047Z,12.50
2023-05-16T13:17:16.067Z,12.60
2023-05-16T13:20:37.713Z,12.60
2023-05-16T13:23:59.322Z,12.60
2023-05-16T13:27:20.941Z,12.70
2023-05-16T13:30:42.576Z,12.70
2023-05-16T13:34:05.560Z,12.50
2023-05-16T13:37:28.196Z,12.40
2023-05-16T13:40:49.880Z,12.20
2023-05-16T13:44:11.491Z,12.10
2023-05-16T13:47:33.358Z,12.10
2023-05-16T13:50:56.368Z,12.20
2023-05-16T13:54:18.055Z,12.30
2023-05-16T13:57:39.795Z,12.40
2023-05-16T14:01:01.467Z,12.50
2023-05-16T14:04:23.239Z,12.50
2023-05-16T14:07:47.057Z,12.50
2023-05-16T14:11:08.825Z,12.50
2023-05-16T14:14:30.439Z,12.50
2023-05-16T14:17:52.275Z,12.40
2023-05-16T14:21:14.049Z,12.40
2023-05-16T14:24:37.205Z,12.40
2023-05-16T14:27:58.817Z,12.30
2023-05-16T14:31:20.596Z,12.10
2023-05-16T14:34:42.313Z,12.00
2023-05-16T14:38:06.806Z,11.90
2023-05-16T14:41:29.828Z,11.80
2023-05-16T14:44:51.459Z,11.90
2023-05-16T14:48:13.135Z,12.00
2023-05-16T14:51:34.811Z,12.00
2023-05-16T14:54:56.434Z,12.00
2023-05-16T14:58:19.434Z,12.00
2023-05-16T15:01:41.244Z,11.90
2023-05-16T15:05:03.056Z,11.90
2023-05-16T15:08:24.980Z,11.90
2023-05-16T15:11:46.718Z,12.00
2023-05-16T15:15:10.515Z,12.10
2023-05-16T15:18:32.229Z,12.10
2023-05-16T15:21:53.884Z,12.20
2023-05-16T15:25:15.521Z,12.30
2023-05-16T15:28:37.292Z,12.30
2023-05-16T15:32:03.616Z,12.40
2023-05-16T15:35:25.359Z,12.40
2023-05-16T15:38:47.024Z,12.30
2023-05-16T15:42:11.098Z,12.30
2023-05-16T15:45:33.054Z,12.20
2023-05-16T15:48:56.677Z,12.30
2023-05-16T15:52:20.031Z,12.30
2023-05-16T15:55:43.815Z,12.30
2023-05-16T15:59:05.467Z,12.30
2023-05-16T16:02:27.258Z,12.40
2023-05-16T16:05:50.988Z,12.40
2023-05-16T16:09:12.757Z,12.40
2023-05-16T16:12:34.407Z,12.50
2023-05-16T16:15:56.040Z,12.50
2023-05-16T16:19:18.877Z,12.50
2023-05-16T16:22:42.125Z,12.40
2023-05-16T16:26:04.259Z,12.40
2023-05-16T16:29:25.916Z,12.40
2023-05-16T16:32:47.560Z,12.30
2023-05-16T16:36:09.688Z,12.30
2023-05-16T16:39:33.424Z,12.30
2023-05-16T16:42:55.106Z,12.30
2023-05-16T16:46:16.765Z,12.30
2023-05-16T16:49:38.401Z,12.30
2023-05-16T16:53:00.041Z,12.20
2023-05-16T16:56:23.049Z,12.20
2023-05-16T16:59:44.677Z,12.20
2023-05-16T17:03:06.384Z,12.10
2023-05-16T17:06:28.264Z,12.10
2023-05-16T17:09:49.932Z,12.20
2023-05-16T17:13:13.394Z,12.20
2023-05-16T17:16:35.223Z,12.20
2023-05-16T17:19:56.911Z,12.20
2023-05-16T17:23:18.654Z,12.20
2023-05-16T17:26:40.502Z,12.20
2023-05-16T17:30:03.738Z,12.10
2023-05-16T17:33:25.456Z,12.10
2023-05-16T17:36:47.116Z,12.10
2023-05-16T17:40:09.016Z,12.10
2023-05-16T17:43:30.660Z,12.10
2023-05-16T17:46:53.656Z,12.10
2023-05-16T17:50:16.482Z,12.10
2023-05-16T17:53:38.182Z,12.10
2023-05-16T17:56:59.789Z,12.10
2023-05-16T18:00:21.882Z,12.10
2023-05-16T18:03:45.016Z,12.10
2023-05-16T18:07:06.776Z,12.00
2023-05-16T18:10:33.922Z,12.10
2023-05-16T18:14:01.821Z,12.00
2023-05-16T18:17:23.523Z,12.00
2023-05-16T18:20:46.642Z,12.00
2023-05-16T18:24:08.413Z,12.00
2023-05-16T18:27:30.166Z,12.00
2023-05-16T18:30:51.835Z,12.00
2023-05-16T18:34:13.532Z,12.00
2023-05-16T18:37:36.645Z,11.90
2023-05-16T18:40:58.367Z,11.90
2023-05-16T18:44:19.968Z,11.90
2023-05-16T18:47:41.730Z,11.80
2023-05-16T18:51:03.598Z,11.80
2023-05-16T18:54:28.313Z,11.80
2023-05-16T18:57:50.043Z,11.70
2023-05-16T19:01:11.721Z,11.70
2023-05-16T19:04:33.481Z,11.60
2023-05-16T19:07:55.153Z,11.50
2023-05-16T19:11:18.260Z,11.50
2023-05-16T19:14:39.974Z,11.40
2023-05-16T19:18:01.724Z,11.40
2023-05-16T19:21:23.905Z,11.40
2023-05-16T19:24:45.997Z,11.30
2023-05-16T19:28:09.096Z,11.30
2023-05-16T19:31:30.753Z,11.30
2023-05-16T19:34:52.487Z,11.30
2023-05-16T19:38:14.169Z,11.20
2023-05-16T19:41:36.886Z,11.20
2023-05-16T19:44:59.860Z,11.10
2023-05-16T19:48:21.580Z,10.90
2023-05-16T19:51:43.436Z,10.80
2023-05-16T19:55:07.158Z,10.70
2023-05-16T19:58:28.782Z,10.60
2023-05-16T20:01:51.778Z,10.60
2023-05-16T20:05:13.556Z,10.60
2023-05-16T20:08:35.197Z,10.60
2023-05-16T20:11:56.860Z,10.60
2023-05-16T20:15:18.513Z,10.50
2023-05-16T20:18:41.658Z,10.40
2023-05-16T20:22:03.428Z,10.40
2023-05-16T20:25:25.028Z,10.30
2023-05-16T20:28:46.773Z,10.20
2023-05-16T20:32:08.407Z,10.30
2023-05-16T20:35:31.923Z,10.30
2023-05-16T20:38:54.003Z,10.30
2023-05-16T20:42:15.646Z,10.30
2023-05-16T20:45:37.238Z,10.30
2023-05-16T20:48:58.951Z,10.30
2023-05-16T20:52:22.104Z,10.40
2023-05-16T20:55:43.821Z,10.40
2023-05-16T20:59:06.583Z,10.30
2023-05-16T21:02:28.303Z,10.30
2023-05-16T21:05:50.105Z,10.30
2023-05-16T21:09:13.146Z,10.30
2023-05-16T21:12:34.756Z,10.30
2023-05-16T21:15:56.375Z,10.30
2023-05-16T21:19:18.115Z,10.20
2023-05-16T21:22:39.933Z,10.20
2023-05-16T21:26:02.881Z,10.20
2023-05-16T21:29:24.502Z,10.20
2023-05-16T21:32:46.222Z,10.20
2023-05-16T21:36:08.084Z,10.20
2023-05-16T21:39:29.695Z,10.20
2023-05-16T21:42:52.916Z,10.20
2023-05-16T21:46:14.644Z,10.20
2023-05-16T21:49:36.258Z,10.10
2023-05-16T21:52:57.872Z,10.00
2023-05-16T21:56:19.490Z,10.00
2023-05-16T21:59:42.464Z,9.90
2023-05-16T22:03:04.195Z,9.90
2023-05-16T22:06:25.977Z,9.80
2023-05-16T22:09:47.634Z,9.70
2023-05-16T22:13:09.231Z,9.60
2023-05-16T22:16:32.273Z,9.50
2023-05-16T22:19:53.872Z,9.30
2023-05-16T22:23:15.655Z,9.30
2023-05-16T22:26:37.305Z,9.20
2023-05-16T22:29:58.953Z,9.00
2023-05-16T22:33:22.000Z,8.90
2023-05-16T22:36:43.756Z,8.80
2023-05-16T22:40:05.946Z,8.70
2023-05-16T22:43:27.610Z,8.60
2023-05-16T22:46:49.218Z,8.60
2023-05-16T22:50:12.215Z,8.50
2023-05-16T22:53:33.849Z,8.50
2023-05-16T22:56:55.459Z,8.40
2023-05-16T23:00:17.558Z,8.40
2023-05-16T23:03:39.286Z,8.30
2023-05-16T23:07:02.246Z,8.30
2023-05-16T23:10:23.899Z,8.20
2023-05-16T23:13:45.530Z,8.20
2023-05-16T23:17:07.188Z,8.20
2023-05-16T23:20:28.922Z,8.10
2023-05-16T23:23:51.905Z,8.10
2023-05-16T23:27:13.527Z,8.00
2023-05-16T23:30:35.171Z,8.00
2023-05-16T23:33:56.859Z,7.90
2023-05-16T23:37:18.528Z,7.90
2023-05-16T23:40:41.484Z,7.80
2023-05-16T23:44:03.135Z,7.70
2023-05-16T23:47:24.875Z,7.70
2023-05-16T23:50:46.514Z,7.70
2023-05-16T23:54:08.131Z,7.60
2023-05-16T23:57:31.140Z,7.60
